sensor_id;sensor_type;location;lat;lon;timestamp;temperature;humidity
3298;DHT22;1661;53.572;10.174;2023-06-24T00:02:01;18.60;79.00
3298;DHT22;1661;53.572;10.174;2023-06-24T00:04:28;18.60;78.60
3298;DHT22;1661;53.572;10.174;2023-06-24T00:06:55;18.60;79.00
3298;DHT22;1661;53.572;10.174;2023-06-24T00:09:25;18.50;79.00
3298;DHT22;1661;53.572;10.174;2023-06-24T00:11:53;18.50;78.40
3298;DHT22;1661;53.572;10.174;2023-06-24T00:14:19;18.50;78.80
3298;DHT22;1661;53.572;10.174;2023-06-24T00:16:46;18.40;79.40
3298;DHT22;1661;53.572;10.174;2023-06-24T00:19:18;18.40;78.50
3298;DHT22;1661;53.572;10.174;2023-06-24T00:21:46;18.30;77.60
3298;DHT22;1661;53.572;10.174;2023-06-24T00:24:13;18.30;77.70
3298;DHT22;1661;53.572;10.174;2023-06-24T00:26:39;18.30;77.20
3298;DHT22;1661;53.572;10.174;2023-06-24T00:29:06;18.30;78.30
3298;DHT22;1661;53.572;10.174;2023-06-24T00:31:33;18.30;78.70
3298;DHT22;1661;53.572;10.174;2023-06-24T00:34:00;18.30;78.80
3298;DHT22;1661;53.572;10.174;2023-06-24T00:36:28;18.30;79.00
3298;DHT22;1661;53.572;10.174;2023-06-24T00:38:57;18.20;79.20
3298;DHT22;1661;53.572;10.174;2023-06-24T00:41:26;18.20;79.50
3298;DHT22;1661;53.572;10.174;2023-06-24T00:43:53;18.20;79.20
3298;DHT22;1661;53.572;10.174;2023-06-24T00:46:23;18.20;79.50
3298;DHT22;1661;53.572;10.174;2023-06-24T00:48:51;18.10;79.50
3298;DHT22;1661;53.572;10.174;2023-06-24T00:51:17;18.10;79.30
3298;DHT22;1661;53.572;10.174;2023-06-24T00:53:47;18.10;79.50
3298;DHT22;1661;53.572;10.174;2023-06-24T00:56:16;18.00;80.00
3298;DHT22;1661;53.572;10.174;2023-06-24T00:58:44;18.00;79.80
3298;DHT22;1661;53.572;10.174;2023-06-24T01:01:12;18.00;80.00
3298;DHT22;1661;53.572;10.174;2023-06-24T01:03:40;18.00;79.90
3298;DHT22;1661;53.572;10.174;2023-06-24T01:06:08;17.90;80.10
3298;DHT22;1661;53.572;10.174;2023-06-24T01:08:35;17.90;80.30
3298;DHT22;1661;53.572;10.174;2023-06-24T01:11:03;17.90;80.10
3298;DHT22;1661;53.572;10.174;2023-06-24T01:13:30;17.80;79.60
3298;DHT22;1661;53.572;10.174;2023-06-24T01:15:58;17.80;79.90
3298;DHT22;1661;53.572;10.174;2023-06-24T01:18:32;17.70;79.50
3298;DHT22;1661;53.572;10.174;2023-06-24T01:21:07;17.70;79.90
3298;DHT22;1661;53.572;10.174;2023-06-24T01:23:58;17.70;79.80
3298;DHT22;1661;53.572;10.174;2023-06-24T01:26:57;17.70;79.80
3298;DHT22;1661;53.572;10.174;2023-06-24T01:29:52;17.70;79.40
3298;DHT22;1661;53.572;10.174;2023-06-24T01:32:27;17.60;79.10
3298;DHT22;1661;53.572;10.174;2023-06-24T01:34:57;17.60;79.90
3298;DHT22;1661;53.572;10.174;2023-06-24T01:37:28;17.60;80.60
3298;DHT22;1661;53.572;10.174;2023-06-24T01:40:01;17.50;80.40
3298;DHT22;1661;53.572;10.174;2023-06-24T01:42:36;17.50;80.20
3298;DHT22;1661;53.572;10.174;2023-06-24T01:45:06;17.50;79.40
3298;DHT22;1661;53.572;10.174;2023-06-24T01:47:36;17.50;80.30
3298;DHT22;1661;53.572;10.174;2023-06-24T01:50:06;17.40;80.60
3298;DHT22;1661;53.572;10.174;2023-06-24T01:52:35;17.40;80.50
3298;DHT22;1661;53.572;10.174;2023-06-24T01:55:04;17.40;80.60
3298;DHT22;1661;53.572;10.174;2023-06-24T01:57:33;17.40;80.80
3298;DHT22;1661;53.572;10.174;2023-06-24T02:00:01;17.40;81.00
3298;DHT22;1661;53.572;10.174;2023-06-24T02:02:33;17.30;80.70
3298;DHT22;1661;53.572;10.174;2023-06-24T02:05:01;17.30;80.30
3298;DHT22;1661;53.572;10.174;2023-06-24T02:07:30;17.30;80.30
3298;DHT22;1661;53.572;10.174;2023-06-24T02:09:58;17.20;80.60
3298;DHT22;1661;53.572;10.174;2023-06-24T02:12:26;17.20;80.70
3298;DHT22;1661;53.572;10.174;2023-06-24T02:14:55;17.20;80.40
3298;DHT22;1661;53.572;10.174;2023-06-24T02:17:23;17.20;80.20
3298;DHT22;1661;53.572;10.174;2023-06-24T02:19:53;17.10;80.00
3298;DHT22;1661;53.572;10.174;2023-06-24T02:22:21;17.10;79.90
3298;DHT22;1661;53.572;10.174;2023-06-24T02:24:49;17.10;79.70
3298;DHT22;1661;53.572;10.174;2023-06-24T02:27:17;17.10;79.60
3298;DHT22;1661;53.572;10.174;2023-06-24T02:29:45;17.00;79.20
3298;DHT22;1661;53.572;10.174;2023-06-24T02:32:12;17.00;79.20
3298;DHT22;1661;53.572;10.174;2023-06-24T02:34:39;17.00;79.40
3298;DHT22;1661;53.572;10.174;2023-06-24T02:37:08;17.00;79.70
3298;DHT22;1661;53.572;10.174;2023-06-24T02:39:35;17.00;79.90
3298;DHT22;1661;53.572;10.174;2023-06-24T02:42:03;17.00;79.50
3298;DHT22;1661;53.572;10.174;2023-06-24T02:44:30;16.90;79.30
3298;DHT22;1661;53.572;10.174;2023-06-24T02:46:58;16.90;79.40
3298;DHT22;1661;53.572;10.174;2023-06-24T02:49:25;16.90;79.40
3298;DHT22;1661;53.572;10.174;2023-06-24T02:51:52;16.90;79.30
3298;DHT22;1661;53.572;10.174;2023-06-24T02:54:21;16.90;79.10
3298;DHT22;1661;53.572;10.174;2023-06-24T02:56:48;16.90;79.60
3298;DHT22;1661;53.572;10.174;2023-06-24T02:59:15;16.80;79.90
3298;DHT22;1661;53.572;10.174;2023-06-24T03:01:42;16.80;80.20
3298;DHT22;1661;53.572;10.174;2023-06-24T03:04:11;16.80;80.30
3298;DHT22;1661;53.572;10.174;2023-06-24T03:06:38;16.70;80.50
3298;DHT22;1661;53.572;10.174;2023-06-24T03:09:06;16.70;80.30
3298;DHT22;1661;53.572;10.174;2023-06-24T03:11:41;16.70;80.50
3298;DHT22;1661;53.572;10.174;2023-06-24T03:14:08;16.70;80.30
3298;DHT22;1661;53.572;10.174;2023-06-24T03:16:35;16.70;80.00
3298;DHT22;1661;53.572;10.174;2023-06-24T03:19:03;16.60;80.50
3298;DHT22;1661;53.572;10.174;2023-06-24T03:21:30;16.60;80.10
3298;DHT22;1661;53.572;10.174;2023-06-24T03:23:57;16.60;79.60
3298;DHT22;1661;53.572;10.174;2023-06-24T03:26:30;16.60;79.30
3298;DHT22;1661;53.572;10.174;2023-06-24T03:28:58;16.60;79.20
3298;DHT22;1661;53.572;10.174;2023-06-24T03:31:25;16.60;80.10
3298;DHT22;1661;53.572;10.174;2023-06-24T03:33:52;16.60;80.40
3298;DHT22;1661;53.572;10.174;2023-06-24T03:36:19;16.60;80.70
3298;DHT22;1661;53.572;10.174;2023-06-24T03:38:46;16.60;80.30
3298;DHT22;1661;53.572;10.174;2023-06-24T03:41:13;16.60;80.00
3298;DHT22;1661;53.572;10.174;2023-06-24T03:43:40;16.60;80.10
3298;DHT22;1661;53.572;10.174;2023-06-24T03:46:08;16.60;80.40
3298;DHT22;1661;53.572;10.174;2023-06-24T03:48:35;16.60;80.10
3298;DHT22;1661;53.572;10.174;2023-06-24T03:51:02;16.60;80.50
3298;DHT22;1661;53.572;10.174;2023-06-24T03:53:29;16.60;80.20
3298;DHT22;1661;53.572;10.174;2023-06-24T03:55:55;16.60;80.40
3298;DHT22;1661;53.572;10.174;2023-06-24T03:58:22;16.60;79.80
3298;DHT22;1661;53.572;10.174;2023-06-24T04:00:49;16.60;80.00
3298;DHT22;1661;53.572;10.174;2023-06-24T04:03:17;16.60;80.00
3298;DHT22;1661;53.572;10.174;2023-06-24T04:05:44;16.60;80.40
3298;DHT22;1661;53.572;10.174;2023-06-24T04:08:11;16.60;79.30
3298;DHT22;1661;53.572;10.174;2023-06-24T04:10:38;16.70;79.40
3298;DHT22;1661;53.572;10.174;2023-06-24T04:13:04;16.70;80.20
3298;DHT22;1661;53.572;10.174;2023-06-24T04:15:31;16.70;80.50
3298;DHT22;1661;53.572;10.174;2023-06-24T04:17:58;16.70;80.60
3298;DHT22;1661;53.572;10.174;2023-06-24T04:20:26;16.80;80.90
3298;DHT22;1661;53.572;10.174;2023-06-24T04:22:53;16.80;80.80
3298;DHT22;1661;53.572;10.174;2023-06-24T04:25:20;16.80;80.60
3298;DHT22;1661;53.572;10.174;2023-06-24T04:27:46;16.90;80.10
3298;DHT22;1661;53.572;10.174;2023-06-24T04:30:13;16.90;79.60
3298;DHT22;1661;53.572;10.174;2023-06-24T04:32:40;16.90;80.30
3298;DHT22;1661;53.572;10.174;2023-06-24T04:35:07;17.00;81.20
3298;DHT22;1661;53.572;10.174;2023-06-24T04:37:35;17.00;82.20
3298;DHT22;1661;53.572;10.174;2023-06-24T04:40:03;17.10;82.40
3298;DHT22;1661;53.572;10.174;2023-06-24T04:42:29;17.10;83.30
3298;DHT22;1661;53.572;10.174;2023-06-24T04:44:56;17.20;83.30
3298;DHT22;1661;53.572;10.174;2023-06-24T04:47:23;17.20;84.90
3298;DHT22;1661;53.572;10.174;2023-06-24T04:49:50;17.20;85.20
3298;DHT22;1661;53.572;10.174;2023-06-24T04:52:16;17.20;85.70
3298;DHT22;1661;53.572;10.174;2023-06-24T04:54:45;17.20;85.70
3298;DHT22;1661;53.572;10.174;2023-06-24T04:57:23;17.20;85.60
3298;DHT22;1661;53.572;10.174;2023-06-24T04:59:51;17.30;85.50
3298;DHT22;1661;53.572;10.174;2023-06-24T05:02:17;17.20;86.00
3298;DHT22;1661;53.572;10.174;2023-06-24T05:04:44;17.20;85.20
3298;DHT22;1661;53.572;10.174;2023-06-24T05:07:11;17.20;84.20
3298;DHT22;1661;53.572;10.174;2023-06-24T05:09:38;17.30;84.30
3298;DHT22;1661;53.572;10.174;2023-06-24T05:12:07;17.30;84.10
3298;DHT22;1661;53.572;10.174;2023-06-24T05:14:34;17.40;83.70
3298;DHT22;1661;53.572;10.174;2023-06-24T05:17:01;17.40;83.80
3298;DHT22;1661;53.572;10.174;2023-06-24T05:19:28;17.40;83.80
3298;DHT22;1661;53.572;10.174;2023-06-24T05:21:55;17.40;82.80
3298;DHT22;1661;53.572;10.174;2023-06-24T05:24:22;17.50;83.20
3298;DHT22;1661;53.572;10.174;2023-06-24T05:26:50;17.50;83.50
3298;DHT22;1661;53.572;10.174;2023-06-24T05:29:18;17.60;83.70
3298;DHT22;1661;53.572;10.174;2023-06-24T05:31:45;17.60;83.50
3298;DHT22;1661;53.572;10.174;2023-06-24T05:34:12;17.70;83.10
3298;DHT22;1661;53.572;10.174;2023-06-24T05:36:39;17.80;82.80
3298;DHT22;1661;53.572;10.174;2023-06-24T05:39:05;17.80;83.00
3298;DHT22;1661;53.572;10.174;2023-06-24T05:41:33;17.90;83.20
3298;DHT22;1661;53.572;10.174;2023-06-24T05:44:04;17.90;83.00
3298;DHT22;1661;53.572;10.174;2023-06-24T05:46:33;18.00;82.70
3298;DHT22;1661;53.572;10.174;2023-06-24T05:48:59;18.10;82.30
3298;DHT22;1661;53.572;10.174;2023-06-24T05:51:26;18.20;82.20
3298;DHT22;1661;53.572;10.174;2023-06-24T05:53:53;18.30;81.50
3298;DHT22;1661;53.572;10.174;2023-06-24T05:56:20;18.40;81.00
3298;DHT22;1661;53.572;10.174;2023-06-24T05:58:47;18.50;80.90
3298;DHT22;1661;53.572;10.174;2023-06-24T06:01:14;18.60;81.30
3298;DHT22;1661;53.572;10.174;2023-06-24T06:03:42;18.80;81.10
3298;DHT22;1661;53.572;10.174;2023-06-24T06:06:09;18.90;80.30
3298;DHT22;1661;53.572;10.174;2023-06-24T06:08:36;18.90;79.90
3298;DHT22;1661;53.572;10.174;2023-06-24T06:11:03;18.80;79.60
3298;DHT22;1661;53.572;10.174;2023-06-24T06:13:30;19.00;79.50
3298;DHT22;1661;53.572;10.174;2023-06-24T06:15:57;19.20;79.00
3298;DHT22;1661;53.572;10.174;2023-06-24T06:18:24;19.40;77.20
3298;DHT22;1661;53.572;10.174;2023-06-24T06:20:52;19.50;76.20
3298;DHT22;1661;53.572;10.174;2023-06-24T06:23:19;19.60;77.30
3298;DHT22;1661;53.572;10.174;2023-06-24T06:25:46;19.80;76.50
3298;DHT22;1661;53.572;10.174;2023-06-24T06:28:13;19.90;75.30
3298;DHT22;1661;53.572;10.174;2023-06-24T06:30:39;20.00;74.10
3298;DHT22;1661;53.572;10.174;2023-06-24T06:33:06;20.00;75.30
3298;DHT22;1661;53.572;10.174;2023-06-24T06:35:33;20.10;74.90
3298;DHT22;1661;53.572;10.174;2023-06-24T06:38:01;20.40;74.10
3298;DHT22;1661;53.572;10.174;2023-06-24T06:40:28;20.60;73.70
3298;DHT22;1661;53.572;10.174;2023-06-24T06:42:55;20.80;72.80
3298;DHT22;1661;53.572;10.174;2023-06-24T06:45:22;20.90;72.00
3298;DHT22;1661;53.572;10.174;2023-06-24T06:47:49;21.10;71.40
3298;DHT22;1661;53.572;10.174;2023-06-24T06:50:16;21.30;70.80
3298;DHT22;1661;53.572;10.174;2023-06-24T06:52:43;21.40;70.10
3298;DHT22;1661;53.572;10.174;2023-06-24T06:55:12;21.60;70.40
3298;DHT22;1661;53.572;10.174;2023-06-24T06:57:38;21.80;69.30
3298;DHT22;1661;53.572;10.174;2023-06-24T07:00:06;21.80;67.00
3298;DHT22;1661;53.572;10.174;2023-06-24T07:02:33;21.80;68.30
3298;DHT22;1661;53.572;10.174;2023-06-24T07:05:00;21.90;67.20
3298;DHT22;1661;53.572;10.174;2023-06-24T07:07:27;22.00;67.80
3298;DHT22;1661;53.572;10.174;2023-06-24T07:09:54;22.10;68.10
3298;DHT22;1661;53.572;10.174;2023-06-24T07:12:24;22.30;65.20
3298;DHT22;1661;53.572;10.174;2023-06-24T07:14:51;22.50;64.90
3298;DHT22;1661;53.572;10.174;2023-06-24T07:17:18;22.70;65.50
3298;DHT22;1661;53.572;10.174;2023-06-24T07:19:44;22.70;64.80
3298;DHT22;1661;53.572;10.174;2023-06-24T07:22:11;22.80;65.20
3298;DHT22;1661;53.572;10.174;2023-06-24T07:24:38;22.70;64.60
3298;DHT22;1661;53.572;10.174;2023-06-24T07:27:05;22.80;65.90
3298;DHT22;1661;53.572;10.174;2023-06-24T07:29:34;23.00;64.30
3298;DHT22;1661;53.572;10.174;2023-06-24T07:32:01;23.20;63.40
3298;DHT22;1661;53.572;10.174;2023-06-24T07:34:29;23.30;63.20
3298;DHT22;1661;53.572;10.174;2023-06-24T07:36:56;23.60;62.00
3298;DHT22;1661;53.572;10.174;2023-06-24T07:39:22;23.60;60.10
3298;DHT22;1661;53.572;10.174;2023-06-24T07:41:49;23.70;62.00
3298;DHT22;1661;53.572;10.174;2023-06-24T07:44:16;23.80;61.90
3298;DHT22;1661;53.572;10.174;2023-06-24T07:46:45;23.80;60.50
3298;DHT22;1661;53.572;10.174;2023-06-24T07:49:14;24.00;60.90
3298;DHT22;1661;53.572;10.174;2023-06-24T07:51:41;24.20;58.30
3298;DHT22;1661;53.572;10.174;2023-06-24T07:54:07;24.30;59.40
3298;DHT22;1661;53.572;10.174;2023-06-24T07:56:34;24.40;59.00
3298;DHT22;1661;53.572;10.174;2023-06-24T07:59:01;24.40;58.00
3298;DHT22;1661;53.572;10.174;2023-06-24T08:01:28;24.20;59.20
3298;DHT22;1661;53.572;10.174;2023-06-24T08:03:56;24.30;59.30
3298;DHT22;1661;53.572;10.174;2023-06-24T08:06:22;23.90;59.10
3298;DHT22;1661;53.572;10.174;2023-06-24T08:08:49;24.00;60.00
3298;DHT22;1661;53.572;10.174;2023-06-24T08:11:16;24.10;60.10
3298;DHT22;1661;53.572;10.174;2023-06-24T08:13:43;24.30;59.00
3298;DHT22;1661;53.572;10.174;2023-06-24T08:16:10;24.40;58.10
3298;DHT22;1661;53.572;10.174;2023-06-24T08:18:37;24.60;58.10
3298;DHT22;1661;53.572;10.174;2023-06-24T08:21:06;24.80;56.90
3298;DHT22;1661;53.572;10.174;2023-06-24T08:23:33;24.90;57.30
3298;DHT22;1661;53.572;10.174;2023-06-24T08:25:59;25.10;57.10
3298;DHT22;1661;53.572;10.174;2023-06-24T08:28:26;25.40;56.60
3298;DHT22;1661;53.572;10.174;2023-06-24T08:30:53;25.60;55.80
3298;DHT22;1661;53.572;10.174;2023-06-24T08:33:20;25.60;54.50
3298;DHT22;1661;53.572;10.174;2023-06-24T08:35:46;25.50;55.30
3298;DHT22;1661;53.572;10.174;2023-06-24T08:38:15;25.60;57.10
3298;DHT22;1661;53.572;10.174;2023-06-24T08:40:42;25.70;56.80
3298;DHT22;1661;53.572;10.174;2023-06-24T08:43:09;25.80;57.00
3298;DHT22;1661;53.572;10.174;2023-06-24T08:45:36;26.00;55.40
3298;DHT22;1661;53.572;10.174;2023-06-24T08:48:04;26.20;56.00
3298;DHT22;1661;53.572;10.174;2023-06-24T08:50:36;26.30;55.70
3298;DHT22;1661;53.572;10.174;2023-06-24T08:53:07;26.40;55.80
3298;DHT22;1661;53.572;10.174;2023-06-24T08:55:40;26.60;54.70
3298;DHT22;1661;53.572;10.174;2023-06-24T08:58:07;26.70;54.10
3298;DHT22;1661;53.572;10.174;2023-06-24T09:00:34;26.80;54.30
3298;DHT22;1661;53.572;10.174;2023-06-24T09:03:01;26.90;55.40
3298;DHT22;1661;53.572;10.174;2023-06-24T09:05:28;27.10;52.80
3298;DHT22;1661;53.572;10.174;2023-06-24T09:07:55;27.10;53.20
3298;DHT22;1661;53.572;10.174;2023-06-24T09:10:32;27.20;53.20
3298;DHT22;1661;53.572;10.174;2023-06-24T09:13:01;27.10;53.30
3298;DHT22;1661;53.572;10.174;2023-06-24T09:15:31;27.10;54.90
3298;DHT22;1661;53.572;10.174;2023-06-24T09:17:58;27.30;54.40
3298;DHT22;1661;53.572;10.174;2023-06-24T09:20:26;27.40;53.30
3298;DHT22;1661;53.572;10.174;2023-06-24T09:22:58;27.40;52.20
3298;DHT22;1661;53.572;10.174;2023-06-24T09:25:26;27.50;53.00
3298;DHT22;1661;53.572;10.174;2023-06-24T09:27:53;27.60;52.10
3298;DHT22;1661;53.572;10.174;2023-06-24T09:30:23;27.50;51.60
3298;DHT22;1661;53.572;10.174;2023-06-24T09:32:50;27.60;53.70
3298;DHT22;1661;53.572;10.174;2023-06-24T09:35:18;27.80;52.30
3298;DHT22;1661;53.572;10.174;2023-06-24T09:37:49;28.00;52.40
3298;DHT22;1661;53.572;10.174;2023-06-24T09:40:16;28.20;52.30
3298;DHT22;1661;53.572;10.174;2023-06-24T09:42:51;28.30;52.40
3298;DHT22;1661;53.572;10.174;2023-06-24T09:45:24;28.30;50.80
3298;DHT22;1661;53.572;10.174;2023-06-24T09:47:51;28.20;50.20
3298;DHT22;1661;53.572;10.174;2023-06-24T09:50:18;28.30;51.60
3298;DHT22;1661;53.572;10.174;2023-06-24T09:52:45;28.30;51.30
3298;DHT22;1661;53.572;10.174;2023-06-24T09:55:13;28.40;50.90
3298;DHT22;1661;53.572;10.174;2023-06-24T09:57:42;28.60;50.90
3298;DHT22;1661;53.572;10.174;2023-06-24T10:00:12;28.70;51.80
3298;DHT22;1661;53.572;10.174;2023-06-24T10:02:43;28.90;49.10
3298;DHT22;1661;53.572;10.174;2023-06-24T10:05:11;28.80;50.40
3298;DHT22;1661;53.572;10.174;2023-06-24T10:07:39;29.00;47.40
3298;DHT22;1661;53.572;10.174;2023-06-24T10:10:07;29.20;48.50
3298;DHT22;1661;53.572;10.174;2023-06-24T10:12:35;29.40;49.10
3298;DHT22;1661;53.572;10.174;2023-06-24T10:15:02;29.50;48.80
3298;DHT22;1661;53.572;10.174;2023-06-24T10:17:29;29.50;49.40
3298;DHT22;1661;53.572;10.174;2023-06-24T10:19:58;29.60;48.10
3298;DHT22;1661;53.572;10.174;2023-06-24T10:22:30;29.70;47.50
3298;DHT22;1661;53.572;10.174;2023-06-24T10:25:00;29.60;47.50
3298;DHT22;1661;53.572;10.174;2023-06-24T10:27:27;29.60;47.50
3298;DHT22;1661;53.572;10.174;2023-06-24T10:30:02;29.70;48.20
3298;DHT22;1661;53.572;10.174;2023-06-24T10:32:40;29.90;49.30
3298;DHT22;1661;53.572;10.174;2023-06-24T10:35:21;30.10;46.70
3298;DHT22;1661;53.572;10.174;2023-06-24T10:37:54;30.10;47.40
3298;DHT22;1661;53.572;10.174;2023-06-24T10:40:34;30.10;47.80
3298;DHT22;1661;53.572;10.174;2023-06-24T10:43:02;30.20;47.50
3298;DHT22;1661;53.572;10.174;2023-06-24T10:45:29;30.20;47.70
3298;DHT22;1661;53.572;10.174;2023-06-24T10:47:56;30.30;47.50
3298;DHT22;1661;53.572;10.174;2023-06-24T10:50:26;30.50;47.70
3298;DHT22;1661;53.572;10.174;2023-06-24T10:52:53;30.50;46.40
3298;DHT22;1661;53.572;10.174;2023-06-24T10:55:22;30.50;49.30
3298;DHT22;1661;53.572;10.174;2023-06-24T10:57:49;30.60;48.20
3298;DHT22;1661;53.572;10.174;2023-06-24T11:00:16;30.80;47.40
3298;DHT22;1661;53.572;10.174;2023-06-24T11:02:44;30.80;45.80
3298;DHT22;1661;53.572;10.174;2023-06-24T11:05:11;30.80;48.60
3298;DHT22;1661;53.572;10.174;2023-06-24T11:07:39;30.90;47.90
3298;DHT22;1661;53.572;10.174;2023-06-24T11:10:08;31.00;46.80
3298;DHT22;1661;53.572;10.174;2023-06-24T11:12:36;31.10;46.20
3298;DHT22;1661;53.572;10.174;2023-06-24T11:15:04;31.00;45.30
3298;DHT22;1661;53.572;10.174;2023-06-24T11:17:33;31.00;46.30
3298;DHT22;1661;53.572;10.174;2023-06-24T11:20:00;31.10;45.10
3298;DHT22;1661;53.572;10.174;2023-06-24T11:22:27;31.20;45.50
3298;DHT22;1661;53.572;10.174;2023-06-24T11:24:55;31.20;46.90
3298;DHT22;1661;53.572;10.174;2023-06-24T11:27:26;31.20;46.30
3298;DHT22;1661;53.572;10.174;2023-06-24T11:29:54;31.00;44.30
3298;DHT22;1661;53.572;10.174;2023-06-24T11:32:21;31.00;48.00
3298;DHT22;1661;53.572;10.174;2023-06-24T11:34:48;31.10;46.00
3298;DHT22;1661;53.572;10.174;2023-06-24T11:37:17;31.40;48.90
3298;DHT22;1661;53.572;10.174;2023-06-24T11:39:44;31.60;45.20
3298;DHT22;1661;53.572;10.174;2023-06-24T11:42:13;31.80;47.80
3298;DHT22;1661;53.572;10.174;2023-06-24T11:44:43;31.90;43.00
3298;DHT22;1661;53.572;10.174;2023-06-24T11:47:10;31.80;42.30
3298;DHT22;1661;53.572;10.174;2023-06-24T11:49:50;31.80;44.10
3298;DHT22;1661;53.572;10.174;2023-06-24T11:52:18;31.90;44.30
3298;DHT22;1661;53.572;10.174;2023-06-24T11:54:45;32.00;46.80
3298;DHT22;1661;53.572;10.174;2023-06-24T11:57:13;32.00;45.30
3298;DHT22;1661;53.572;10.174;2023-06-24T11:59:42;32.00;42.60
3298;DHT22;1661;53.572;10.174;2023-06-24T12:02:13;31.80;43.00
3298;DHT22;1661;53.572;10.174;2023-06-24T12:04:43;31.80;47.20
3298;DHT22;1661;53.572;10.174;2023-06-24T12:07:11;31.80;44.90
3298;DHT22;1661;53.572;10.174;2023-06-24T12:09:38;31.70;47.40
3298;DHT22;1661;53.572;10.174;2023-06-24T12:12:05;31.70;44.40
3298;DHT22;1661;53.572;10.174;2023-06-24T12:14:34;31.70;44.80
3298;DHT22;1661;53.572;10.174;2023-06-24T12:17:01;31.80;44.30
3298;DHT22;1661;53.572;10.174;2023-06-24T12:19:28;31.80;48.30
3298;DHT22;1661;53.572;10.174;2023-06-24T12:21:55;31.70;45.80
3298;DHT22;1661;53.572;10.174;2023-06-24T12:24:22;31.70;45.10
3298;DHT22;1661;53.572;10.174;2023-06-24T12:26:48;31.60;47.70
3298;DHT22;1661;53.572;10.174;2023-06-24T12:29:16;31.40;45.80
3298;DHT22;1661;53.572;10.174;2023-06-24T12:31:45;31.20;46.80
3298;DHT22;1661;53.572;10.174;2023-06-24T12:34:11;31.00;45.60
3298;DHT22;1661;53.572;10.174;2023-06-24T12:36:38;30.90;48.60
3298;DHT22;1661;53.572;10.174;2023-06-24T12:39:05;30.80;48.50
3298;DHT22;1661;53.572;10.174;2023-06-24T12:41:32;30.80;51.10
3298;DHT22;1661;53.572;10.174;2023-06-24T12:43:58;31.00;48.20
3298;DHT22;1661;53.572;10.174;2023-06-24T12:46:25;31.10;48.40
3298;DHT22;1661;53.572;10.174;2023-06-24T12:48:53;31.30;50.90
3298;DHT22;1661;53.572;10.174;2023-06-24T12:51:20;31.10;47.00
3298;DHT22;1661;53.572;10.174;2023-06-24T12:53:47;31.30;49.40
3298;DHT22;1661;53.572;10.174;2023-06-24T12:56:14;31.40;48.30
3298;DHT22;1661;53.572;10.174;2023-06-24T12:58:41;31.40;46.30
3298;DHT22;1661;53.572;10.174;2023-06-24T13:01:08;31.40;48.30
3298;DHT22;1661;53.572;10.174;2023-06-24T13:03:34;31.60;48.30
3298;DHT22;1661;53.572;10.174;2023-06-24T13:06:03;31.80;46.50
3298;DHT22;1661;53.572;10.174;2023-06-24T13:08:30;31.70;46.20
3298;DHT22;1661;53.572;10.174;2023-06-24T13:10:56;31.50;46.80
3298;DHT22;1661;53.572;10.174;2023-06-24T13:13:23;31.50;45.90
3298;DHT22;1661;53.572;10.174;2023-06-24T13:15:50;31.50;46.80
3298;DHT22;1661;53.572;10.174;2023-06-24T13:18:17;31.50;46.40
3298;DHT22;1661;53.572;10.174;2023-06-24T13:20:45;31.50;46.10
3298;DHT22;1661;53.572;10.174;2023-06-24T13:23:13;31.40;46.00
3298;DHT22;1661;53.572;10.174;2023-06-24T13:25:40;31.30;49.10
3298;DHT22;1661;53.572;10.174;2023-06-24T13:28:06;31.20;47.90
3298;DHT22;1661;53.572;10.174;2023-06-24T13:30:33;31.30;48.10
3298;DHT22;1661;53.572;10.174;2023-06-24T13:33:00;31.40;48.30
3298;DHT22;1661;53.572;10.174;2023-06-24T13:35:27;31.30;48.30
3298;DHT22;1661;53.572;10.174;2023-06-24T13:37:53;31.50;46.00
3298;DHT22;1661;53.572;10.174;2023-06-24T13:40:22;31.70;47.70
3298;DHT22;1661;53.572;10.174;2023-06-24T13:42:48;31.70;45.30
3298;DHT22;1661;53.572;10.174;2023-06-24T13:45:15;31.80;46.90
3298;DHT22;1661;53.572;10.174;2023-06-24T13:47:42;31.90;48.50
3298;DHT22;1661;53.572;10.174;2023-06-24T13:50:10;31.80;48.50
3298;DHT22;1661;53.572;10.174;2023-06-24T13:52:37;31.40;46.00
3298;DHT22;1661;53.572;10.174;2023-06-24T13:55:05;31.20;50.00
3298;DHT22;1661;53.572;10.174;2023-06-24T13:57:33;31.00;51.40
3298;DHT22;1661;53.572;10.174;2023-06-24T14:00:00;31.00;47.20
3298;DHT22;1661;53.572;10.174;2023-06-24T14:02:27;30.90;50.40
3298;DHT22;1661;53.572;10.174;2023-06-24T14:04:53;31.00;47.80
3298;DHT22;1661;53.572;10.174;2023-06-24T14:07:20;31.20;47.30
3298;DHT22;1661;53.572;10.174;2023-06-24T14:09:47;31.30;50.50
3298;DHT22;1661;53.572;10.174;2023-06-24T14:12:14;31.40;48.00
3298;DHT22;1661;53.572;10.174;2023-06-24T14:14:42;31.60;49.20
3298;DHT22;1661;53.572;10.174;2023-06-24T14:17:08;31.70;46.10
3298;DHT22;1661;53.572;10.174;2023-06-24T14:19:37;31.90;45.20
3298;DHT22;1661;53.572;10.174;2023-06-24T14:22:05;31.90;44.90
3298;DHT22;1661;53.572;10.174;2023-06-24T14:24:32;31.90;44.10
3298;DHT22;1661;53.572;10.174;2023-06-24T14:26:59;31.90;46.20
3298;DHT22;1661;53.572;10.174;2023-06-24T14:29:26;31.90;45.90
3298;DHT22;1661;53.572;10.174;2023-06-24T14:31:54;31.80;47.00
3298;DHT22;1661;53.572;10.174;2023-06-24T14:34:21;31.90;47.00
3298;DHT22;1661;53.572;10.174;2023-06-24T14:36:47;31.80;47.00
3298;DHT22;1661;53.572;10.174;2023-06-24T14:39:15;31.80;47.30
3298;DHT22;1661;53.572;10.174;2023-06-24T14:41:42;31.90;45.90
3298;DHT22;1661;53.572;10.174;2023-06-24T14:44:09;32.00;44.80
3298;DHT22;1661;53.572;10.174;2023-06-24T14:46:36;32.20;45.70
3298;DHT22;1661;53.572;10.174;2023-06-24T14:49:04;32.30;44.60
3298;DHT22;1661;53.572;10.174;2023-06-24T14:51:31;32.40;45.40
3298;DHT22;1661;53.572;10.174;2023-06-24T14:53:57;32.40;46.90
3298;DHT22;1661;53.572;10.174;2023-06-24T14:56:24;32.50;47.50
3298;DHT22;1661;53.572;10.174;2023-06-24T14:58:51;32.40;44.50
3298;DHT22;1661;53.572;10.174;2023-06-24T15:01:18;32.30;46.40
3298;DHT22;1661;53.572;10.174;2023-06-24T15:03:45;32.30;45.90
3298;DHT22;1661;53.572;10.174;2023-06-24T15:06:13;32.40;47.00
3298;DHT22;1661;53.572;10.174;2023-06-24T15:08:40;32.30;43.60
3298;DHT22;1661;53.572;10.174;2023-06-24T15:11:06;32.10;48.50
3298;DHT22;1661;53.572;10.174;2023-06-24T15:13:33;32.10;43.70
3298;DHT22;1661;53.572;10.174;2023-06-24T15:16:00;32.10;44.20
3298;DHT22;1661;53.572;10.174;2023-06-24T15:18:27;32.00;44.90
3298;DHT22;1661;53.572;10.174;2023-06-24T15:20:54;31.70;45.30
3298;DHT22;1661;53.572;10.174;2023-06-24T15:23:23;31.50;47.00
3298;DHT22;1661;53.572;10.174;2023-06-24T15:25:50;31.30;46.20
3298;DHT22;1661;53.572;10.174;2023-06-24T15:28:17;31.20;49.40
3298;DHT22;1661;53.572;10.174;2023-06-24T15:30:45;31.10;48.00
3298;DHT22;1661;53.572;10.174;2023-06-24T15:33:13;31.00;50.40
3298;DHT22;1661;53.572;10.174;2023-06-24T15:35:40;31.00;50.80
3298;DHT22;1661;53.572;10.174;2023-06-24T15:38:07;31.00;52.30
3298;DHT22;1661;53.572;10.174;2023-06-24T15:40:35;30.90;50.20
3298;DHT22;1661;53.572;10.174;2023-06-24T15:43:05;31.00;51.60
3298;DHT22;1661;53.572;10.174;2023-06-24T15:45:32;30.80;47.90
3298;DHT22;1661;53.572;10.174;2023-06-24T15:47:59;30.60;47.80
3298;DHT22;1661;53.572;10.174;2023-06-24T15:50:26;30.40;50.40